createdAt,value
2023-01-03T00:00:31.176Z,100936.16
2023-01-03T00:01:33.719Z,100930.09
2023-01-03T00:02:35.559Z,100923.94
2023-01-03T00:03:37.500Z,100923.09
2023-01-03T00:04:42.245Z,100925.75
2023-01-03T00:05:48.928Z,100919.56
2023-01-03T00:06:52.892Z,100922.22
2023-01-03T00:07:54.747Z,100917.75
2023-01-03T00:08:59.547Z,100922.38
2023-01-03T00:10:08.341Z,100923.34
2023-01-03T00:11:41.136Z,100925.75
2023-01-03T00:12:43.007Z,100927.09
2023-01-03T00:13:45.497Z,100937.13
2023-01-03T00:14:47.264Z,100922.16
2023-01-03T00:15:49.054Z,100929.75
2023-01-03T00:16:52.986Z,100938.72
2023-01-03T00:17:56.228Z,100927.22
2023-01-03T00:18:58.143Z,100935.22
2023-01-03T00:20:00.073Z,100929.16
2023-01-03T00:21:05.097Z,100925.91
2023-01-03T00:22:08.143Z,100927.47
2023-01-03T00:23:09.900Z,100911.53
2023-01-03T00:24:12.337Z,100928.44
2023-01-03T00:25:14.909Z,100918.41
2023-01-03T00:26:16.828Z,100929.41
2023-01-03T00:27:18.802Z,100912.34
2023-01-03T00:28:20.650Z,100920.44
2023-01-03T00:29:22.506Z,100923.63
2023-01-03T00:30:24.483Z,100924.69
2023-01-03T00:31:26.758Z,100929.66
2023-01-03T00:32:28.618Z,100931.59
2023-01-03T00:33:31.704Z,100921.44
2023-01-03T00:34:34.740Z,100930.63
2023-01-03T00:35:36.621Z,100927.97
2023-01-03T00:36:39.003Z,100931.59
2023-01-03T00:37:40.760Z,100935.25
2023-01-03T00:38:42.773Z,100937.91
2023-01-03T00:39:45.007Z,100935.34
2023-01-03T00:40:46.769Z,100934.72
2023-01-03T00:41:48.732Z,100933.75
2023-01-03T00:43:09.103Z,100937.19
2023-01-03T00:44:10.868Z,100935.25
2023-01-03T00:45:17.527Z,100945.03
2023-01-03T00:46:22.151Z,100950.25
2023-01-03T00:47:23.939Z,100953.16
2023-01-03T00:48:26.967Z,100946.13
2023-01-03T00:49:28.996Z,100952.41
2023-01-03T00:50:30.756Z,100950.72
2023-01-03T00:51:35.170Z,100948.28
2023-01-03T00:52:36.947Z,100942.72
2023-01-03T00:53:40.366Z,100942.88
2023-01-03T00:54:42.188Z,100942.88
2023-01-03T00:55:43.956Z,100937.88
2023-01-03T00:56:47.949Z,100940.44
2023-01-03T00:57:49.713Z,100942.88
2023-01-03T00:58:52.252Z,100950.97
2023-01-03T00:59:54.020Z,100946.59
2023-01-03T01:00:55.859Z,100951.09
2023-01-03T01:01:58.778Z,100951.19
2023-01-03T01:03:00.986Z,100953.88
2023-01-03T01:04:10.898Z,100960.16
2023-01-03T01:05:12.663Z,100959.19
2023-01-03T01:06:21.299Z,100958.34
2023-01-03T01:07:23.099Z,100964.50
2023-01-03T01:08:24.995Z,100946.25
2023-01-03T01:09:32.972Z,100942.41
2023-01-03T01:10:34.773Z,100952.41
2023-01-03T01:11:36.676Z,100957.75
2023-01-03T01:12:38.796Z,100968.28
2023-01-03T01:13:41.431Z,100959.56
2023-01-03T01:14:43.335Z,100945.16
2023-01-03T01:15:45.140Z,100961.38
2023-01-03T01:16:59.341Z,100954.25
2023-01-03T01:18:01.163Z,100947.34
2023-01-03T01:19:03.097Z,100950.72
2023-01-03T01:20:05.795Z,100950.00
2023-01-03T01:21:09.837Z,100906.00
2023-01-03T01:22:12.085Z,100945.66
2023-01-03T01:23:13.920Z,100955.47
2023-01-03T01:24:18.030Z,100949.28
2023-01-03T01:25:20.201Z,100945.91
2023-01-03T01:26:24.104Z,100955.72
2023-01-03T01:27:26.022Z,100957.41
2023-01-03T01:28:28.123Z,100945.16
2023-01-03T01:29:30.161Z,100939.94
2023-01-03T01:30:31.971Z,100947.84
2023-01-03T01:31:33.923Z,100947.09
2023-01-03T01:32:35.716Z,100951.47
2023-01-03T01:33:37.648Z,100945.28
2023-01-03T01:34:39.760Z,100949.75
2023-01-03T01:35:41.636Z,100951.47
2023-01-03T01:36:44.967Z,100949.75
2023-01-03T01:37:46.836Z,100943.59
2023-01-03T01:38:53.031Z,100941.88
2023-01-03T01:39:54.873Z,100940.91
2023-01-03T01:40:56.753Z,100941.88
2023-01-03T01:42:20.787Z,100946.50
2023-01-03T01:43:43.233Z,100943.47
2023-01-03T01:45:06.281Z,100944.81
2023-01-03T01:46:29.320Z,100951.84
2023-01-03T01:47:33.859Z,100952.91
2023-01-03T01:48:35.631Z,100955.81
2023-01-03T01:49:37.425Z,100952.53
2023-01-03T01:50:41.819Z,100960.66
2023-01-03T01:51:43.939Z,100950.25
2023-01-03T01:53:02.776Z,100952.19
2023-01-03T01:54:07.326Z,100953.03
2023-01-03T01:55:18.063Z,100957.28
2023-01-03T01:56:25.840Z,100967.06
2023-01-03T01:57:29.263Z,100962.84
2023-01-03T01:58:35.607Z,100968.16
2023-01-03T01:59:37.583Z,100959.22
2023-01-03T02:00:41.303Z,100967.28
2023-01-03T02:01:46.186Z,100962.22
2023-01-03T02:02:50.804Z,100963.81
2023-01-03T02:04:04.051Z,100962.94
2023-01-03T02:05:08.627Z,100963.66
2023-01-03T02:06:14.435Z,100970.09
2023-01-03T02:07:18.492Z,100967.44
2023-01-03T02:08:21.188Z,100971.06
2023-01-03T02:09:23.008Z,100975.66
2023-01-03T02:10:45.802Z,100975.28
2023-01-03T02:12:15.511Z,100971.78
2023-01-03T02:13:45.151Z,100977.44
2023-01-03T02:15:19.505Z,100978.06
2023-01-03T02:16:23.927Z,100974.69
2023-01-03T02:17:41.433Z,100967.44
2023-01-03T02:18:57.717Z,100981.47
2023-01-03T02:20:27.734Z,100983.03
2023-01-03T02:21:56.353Z,100978.56
2023-01-03T02:23:26.207Z,100981.94
2023-01-03T02:24:53.170Z,100979.53
2023-01-03T02:26:17.045Z,100981.94
2023-01-03T02:27:37.050Z,100977.69
2023-01-03T02:29:20.903Z,100976.88
2023-01-03T02:30:32.464Z,100977.84
2023-01-03T02:31:37.244Z,100980.84
2023-01-03T02:32:45.189Z,100978.56
2023-01-03T02:33:54.103Z,100977.84
2023-01-03T02:35:09.006Z,100983.16
2023-01-03T02:36:30.199Z,100981.31
2023-01-03T02:37:37.576Z,100976.13
2023-01-03T02:38:49.273Z,100976.13
2023-01-03T02:40:21.984Z,100972.50
2023-01-03T02:41:29.696Z,100977.59
2023-01-03T02:42:58.871Z,100964.75
2023-01-03T02:44:08.399Z,100973.34
2023-01-03T02:45:42.355Z,100979.53
2023-01-03T02:46:57.012Z,100972.38
2023-01-03T02:48:11.696Z,100977.09
2023-01-03T02:49:26.838Z,100974.44
2023-01-03T02:50:37.001Z,100960.03
2023-01-03T02:51:44.351Z,100978.28
2023-01-03T02:52:48.959Z,100972.13
2023-01-03T02:53:51.784Z,100930.63
2023-01-03T02:55:00.478Z,100966.66
2023-01-03T02:56:10.122Z,100967.06
2023-01-03T02:57:16.808Z,100971.50
2023-01-03T02:58:24.570Z,100964.50
2023-01-03T02:59:36.188Z,100965.34
2023-01-03T03:00:48.720Z,100964.38
2023-01-03T03:01:52.793Z,100963.53
2023-01-03T03:03:00.835Z,100967.16
2023-01-03T03:04:03.714Z,100969.81
2023-01-03T03:05:12.481Z,100966.66
2023-01-03T03:06:39.349Z,100966.09
2023-01-03T03:07:41.676Z,100972.97
2023-01-03T03:08:47.526Z,100972.47
2023-01-03T03:10:08.382Z,100980.44
2023-01-03T03:11:28.564Z,100977.69
2023-01-03T03:12:52.600Z,100976.81
2023-01-03T03:14:08.952Z,100974.31
2023-01-03T03:15:14.682Z,100979.38
2023-01-03T03:16:41.764Z,100984.06
2023-01-03T03:17:45.617Z,100980.44
2023-01-03T03:18:47.356Z,100984.94
2023-01-03T03:20:25.202Z,100987.13
2023-01-03T03:21:52.720Z,100994.47
2023-01-03T03:23:18.372Z,100976.25
2023-01-03T03:24:46.063Z,100988.19
2023-01-03T03:25:55.033Z,100997.88
2023-01-03T03:26:59.068Z,101000.91
2023-01-03T03:28:26.691Z,100994.00
2023-01-03T03:29:29.460Z,100992.91
2023-01-03T03:30:33.829Z,100992.66
2023-01-03T03:31:39.745Z,100992.53
2023-01-03T03:32:45.635Z,100997.03
2023-01-03T03:34:11.781Z,100990.13
2023-01-03T03:35:17.026Z,100998.59
2023-01-03T03:36:35.880Z,100999.69
2023-01-03T03:37:40.755Z,100992.44
2023-01-03T03:38:44.844Z,100998.81
2023-01-03T03:40:22.931Z,101001.63
2023-01-03T03:42:01.641Z,101001.72
2023-01-03T03:43:34.349Z,101005.13
2023-01-03T03:45:03.363Z,101006.09
2023-01-03T03:46:14.926Z,101018.56
2023-01-03T03:47:35.341Z,101010.81
2023-01-03T03:49:25.920Z,101014.94
2023-01-03T03:50:33.880Z,101017.69
2023-01-03T03:51:38.821Z,101011.88
2023-01-03T03:52:45.047Z,101006.53
2023-01-03T03:53:48.019Z,101016.72
2023-01-03T03:55:04.622Z,101013.31
2023-01-03T03:56:12.682Z,101020.34
2023-01-03T03:57:24.329Z,101019.59
2023-01-03T03:58:40.965Z,101022.91
2023-01-03T03:59:49.075Z,101012.34
2023-01-03T04:00:53.099Z,101008.97
2023-01-03T04:01:58.987Z,101005.09
2023-01-03T04:03:04.279Z,101010.91
2023-01-03T04:04:15.245Z,101014.53
2023-01-03T04:05:21.000Z,101014.38
2023-01-03T04:06:29.018Z,101016.31
2023-01-03T04:07:30.797Z,101024.19
2023-01-03T04:08:32.806Z,101017.19
2023-01-03T04:09:34.650Z,100977.41
2023-01-03T04:10:38.179Z,101003.81
2023-01-03T04:11:40.523Z,101010.16
2023-01-03T04:12:42.352Z,101023.56
2023-01-03T04:13:44.213Z,101015.06
2023-01-03T04:14:46.090Z,101008.72
2023-01-03T04:15:47.911Z,101001.91
2023-01-03T04:16:49.816Z,101016.69
2023-01-03T04:17:51.656Z,101016.69
2023-01-03T04:18:53.449Z,101008.91
2023-01-03T04:19:55.319Z,101022.97
2023-01-03T04:20:57.485Z,101015.91
2023-01-03T04:21:59.346Z,101013.50
2023-01-03T04:23:01.165Z,101020.38
2023-01-03T04:24:04.900Z,101005.13
2023-01-03T04:25:07.557Z,101021.25
2023-01-03T04:26:09.457Z,101028.28
2023-01-03T04:27:11.255Z,101021.25
2023-01-03T04:28:13.032Z,101029.22
2023-01-03T04:29:15.044Z,101023.16
2023-01-03T04:30:17.389Z,101029.31
2023-01-03T04:31:19.255Z,101018.56
2023-01-03T04:32:21.181Z,101033.81
2023-01-03T04:33:22.956Z,101031.16
2023-01-03T04:34:25.980Z,101035.50
2023-01-03T04:35:27.820Z,101038.25
2023-01-03T04:36:29.815Z,101042.75
2023-01-03T04:37:31.621Z,101042.75
2023-01-03T04:38:33.437Z,101035.72
2023-01-03T04:39:35.237Z,101048.06
2023-01-03T04:40:40.890Z,101041.06
2023-01-03T04:41:42.799Z,101038.41
2023-01-03T04:43:03.159Z,101039.22
2023-01-03T04:44:05.137Z,101043.38
2023-01-03T04:45:07.646Z,101048.91
2023-01-03T04:46:09.501Z,101047.19
2023-01-03T04:47:11.413Z,101030.47
2023-01-03T04:48:13.172Z,101046.47
2023-01-03T04:49:15.431Z,101045.63
2023-01-03T04:50:17.226Z,101044.03
2023-01-03T04:51:19.024Z,101053.72
2023-01-03T04:52:20.823Z,101055.53
2023-01-03T04:53:24.064Z,101054.69
2023-01-03T04:54:25.851Z,101057.34
2023-01-03T04:55:27.717Z,101058.19
2023-01-03T04:56:32.035Z,101065.44
2023-01-03T04:57:33.837Z,101048.13
2023-01-03T04:58:35.656Z,101061.81
2023-01-03T04:59:38.222Z,101057.47
2023-01-03T05:00:40.126Z,101055.78
2023-01-03T05:01:52.241Z,101053.31
2023-01-03T05:02:54.512Z,101053.84
2023-01-03T05:04:01.312Z,101065.44
2023-01-03T05:05:03.571Z,101060.31
2023-01-03T05:06:07.737Z,101063.75
2023-01-03T05:07:09.550Z,101065.53
2023-01-03T05:08:12.822Z,101049.44
2023-01-03T05:09:14.811Z,101068.31
2023-01-03T05:10:16.766Z,101062.97
2023-01-03T05:11:18.636Z,101064.81
2023-01-03T05:12:20.469Z,101066.59
2023-01-03T05:13:22.746Z,101066.84
2023-01-03T05:14:24.531Z,101071.91
2023-01-03T05:15:30.910Z,101067.56
2023-01-03T05:16:32.788Z,101061.28
2023-01-03T05:17:34.606Z,101068.44
2023-01-03T05:18:36.483Z,101066.59
2023-01-03T05:19:58.318Z,101068.44
2023-01-03T05:21:38.109Z,101066.03
2023-01-03T05:22:58.407Z,101080.94
2023-01-03T05:24:19.315Z,101073.91
2023-01-03T05:25:39.757Z,101072.09
2023-01-03T05:26:42.422Z,101063.75
2023-01-03T05:27:46.759Z,101071.59
2023-01-03T05:28:52.860Z,101076.28
2023-01-03T05:29:56.549Z,101082.56
2023-01-03T05:30:59.380Z,101080.84
2023-01-03T05:32:01.341Z,101082.78
2023-01-03T05:33:03.233Z,101090.88
2023-01-03T05:34:05.127Z,101083.97
2023-01-03T05:35:07.286Z,101086.88
2023-01-03T05:36:09.891Z,101089.28
2023-01-03T05:37:11.776Z,101089.28
2023-01-03T05:38:14.581Z,101070.31
2023-01-03T05:39:16.513Z,101086.63
2023-01-03T05:40:18.440Z,101090.16
2023-01-03T05:41:40.803Z,101075.72
2023-01-03T05:42:42.677Z,101077.38
2023-01-03T05:43:44.443Z,101095.13
2023-01-03T05:44:46.238Z,101081.22
2023-01-03T05:45:52.945Z,101093.66
2023-01-03T05:46:54.797Z,101056.94
2023-01-03T05:47:59.723Z,101096.31
2023-01-03T05:49:01.636Z,101090.03
2023-01-03T05:50:03.787Z,101091.00
2023-01-03T05:51:05.616Z,101093.66
2023-01-03T05:52:07.476Z,101097.28
2023-01-03T05:53:09.448Z,101102.59
2023-01-03T05:54:14.839Z,101100.88
2023-01-03T05:55:17.101Z,101098.13
2023-01-03T05:56:18.861Z,101107.81
2023-01-03T05:57:20.620Z,101096.75
2023-01-03T05:58:22.457Z,101106.94
2023-01-03T05:59:24.411Z,101106.09
2023-01-03T06:00:26.254Z,101107.91
2023-01-03T06:01:28.789Z,101120.34
2023-01-03T06:02:30.722Z,101107.91
2023-01-03T06:03:32.504Z,101101.75
2023-01-03T06:04:34.346Z,101110.69
2023-01-03T06:05:36.302Z,101105.38
2023-01-03T06:06:38.075Z,101110.56
2023-01-03T06:07:40.102Z,101101.75
2023-01-03T06:08:42.117Z,101107.91
2023-01-03T06:09:43.903Z,101105.97
2023-01-03T06:10:45.726Z,101100.66
2023-01-03T06:11:47.839Z,101110.34
2023-01-03T06:12:49.609Z,101099.59
2023-01-03T06:13:51.385Z,101090.25
2023-01-03T06:14:53.226Z,101091.41
2023-01-03T06:16:13.783Z,101100.00
2023-01-03T06:17:33.979Z,101100.28
2023-01-03T06:18:36.696Z,101103.47
2023-01-03T06:19:38.457Z,101104.44
2023-01-03T06:20:40.266Z,101109.53
2023-01-03T06:21:42.167Z,101111.22
2023-01-03T06:22:44.081Z,101109.28
2023-01-03T06:23:47.652Z,101105.66
2023-01-03T06:24:49.535Z,101108.00
2023-01-03T06:25:51.291Z,101106.91
2023-01-03T06:26:53.056Z,101112.00
2023-01-03T06:27:55.651Z,101115.38
2023-01-03T06:28:57.552Z,101116.00
2023-01-03T06:29:59.699Z,101116.75
2023-01-03T06:31:01.509Z,101120.00
2023-01-03T06:32:08.781Z,101123.44
2023-01-03T06:33:12.244Z,101123.94
2023-01-03T06:34:14.056Z,101124.66
2023-01-03T06:35:15.983Z,101115.72
2023-01-03T06:36:20.589Z,101124.66
2023-01-03T06:37:22.395Z,101125.88
2023-01-03T06:38:26.517Z,101080.56
2023-01-03T06:39:28.327Z,101125.41
2023-01-03T06:40:37.026Z,101128.78
2023-01-03T06:41:41.317Z,101121.44
2023-01-03T06:42:43.537Z,101119.59
2023-01-03T06:43:45.774Z,101131.72
2023-01-03T06:45:07.478Z,101133.41
2023-01-03T06:46:29.323Z,101122.28
2023-01-03T06:47:50.648Z,101125.44
2023-01-03T06:49:10.857Z,101121.84
2023-01-03T06:50:31.332Z,101132.97
2023-01-03T06:51:52.536Z,101128.38
2023-01-03T06:53:12.599Z,101125.81
2023-01-03T06:54:22.575Z,101135.28
2023-01-03T06:55:24.387Z,101147.75
2023-01-03T06:56:26.256Z,101141.69
2023-01-03T06:57:28.173Z,101148.00
2023-01-03T06:58:30.099Z,101121.22
2023-01-03T06:59:31.999Z,101135.16
2023-01-03T07:00:36.776Z,101149.69
2023-01-03T07:01:39.195Z,101148.97
2023-01-03T07:02:41.179Z,101158.66
2023-01-03T07:03:43.172Z,101168.09
2023-01-03T07:04:45.268Z,101160.94
2023-01-03T07:05:47.084Z,101139.72
2023-01-03T07:06:48.970Z,101165.28
2023-01-03T07:07:50.737Z,101172.44
2023-01-03T07:08:52.608Z,101166.97
2023-01-03T07:09:54.372Z,101175.84
2023-01-03T07:10:56.966Z,101171.34
2023-01-03T07:12:18.737Z,101175.84
2023-01-03T07:13:38.993Z,101171.84
2023-01-03T07:14:40.826Z,101166.41
2023-01-03T07:15:45.871Z,101181.66
2023-01-03T07:16:48.773Z,101166.16
2023-01-03T07:17:50.631Z,101190.59
2023-01-03T07:18:55.518Z,101179.22
2023-01-03T07:19:57.516Z,101173.19
2023-01-03T07:20:59.328Z,101182.84
2023-01-03T07:22:01.120Z,101177.53
2023-01-03T07:23:02.887Z,101176.56
2023-01-03T07:24:06.432Z,101174.47
2023-01-03T07:25:08.637Z,101191.81
2023-01-03T07:26:10.413Z,101183.81
2023-01-03T07:27:13.039Z,101188.19
2023-01-03T07:28:16.551Z,101191.81
2023-01-03T07:29:18.391Z,101190.13
2023-01-03T07:30:20.169Z,101199.06
2023-01-03T07:31:21.996Z,101183.81
2023-01-03T07:32:24.569Z,101205.22
2023-01-03T07:33:26.400Z,101203.53
2023-01-03T07:34:28.264Z,101210.56
2023-01-03T07:35:33.029Z,101210.69
2023-01-03T07:36:34.811Z,101210.56
2023-01-03T07:37:36.613Z,101200.88
2023-01-03T07:38:39.714Z,101210.56
2023-01-03T07:39:41.653Z,101201.72
2023-01-03T07:40:43.642Z,101210.56
2023-01-03T07:42:04.096Z,101197.38
2023-01-03T07:43:24.503Z,101185.03
2023-01-03T07:44:26.249Z,101207.31
2023-01-03T07:45:28.020Z,101205.84
2023-01-03T07:46:30.989Z,101208.63
2023-01-03T07:47:32.799Z,101203.44
2023-01-03T07:48:35.824Z,101207.16
2023-01-03T07:49:37.575Z,101216.75
2023-01-03T07:50:39.845Z,101212.38
2023-01-03T07:51:41.644Z,101209.72
2023-01-03T07:52:43.435Z,101206.56
2023-01-03T07:53:45.568Z,101215.16
2023-01-03T07:54:47.360Z,101223.13
2023-01-03T07:55:49.120Z,101216.97
2023-01-03T07:56:50.896Z,101215.28
2023-01-03T07:57:52.676Z,101216.97
2023-01-03T07:58:54.441Z,101208.50
2023-01-03T07:59:56.248Z,101217.94
2023-01-03T08:01:06.715Z,101217.94
2023-01-03T08:02:09.092Z,101220.38
2023-01-03T08:03:11.831Z,101224.00
2023-01-03T08:04:13.873Z,101220.47
2023-01-03T08:05:15.758Z,101230.16
2023-01-03T08:06:23.474Z,101217.09
2023-01-03T08:07:25.375Z,101226.53
2023-01-03T08:08:27.390Z,101218.69
2023-01-03T08:09:47.955Z,101224.00
2023-01-03T08:11:08.272Z,101228.13
2023-01-03T08:12:29.348Z,101225.47
2023-01-03T08:13:31.107Z,101232.25
2023-01-03T08:14:32.904Z,101223.28
2023-01-03T08:15:34.739Z,101233.56
2023-01-03T08:16:36.533Z,101245.16
2023-01-03T08:17:38.398Z,101242.66
2023-01-03T08:18:41.816Z,101238.28
2023-01-03T08:19:45.701Z,101244.44
2023-01-03T08:20:48.300Z,101242.50
2023-01-03T08:21:50.107Z,101244.34
2023-01-03T08:22:51.926Z,101244.34
2023-01-03T08:23:53.744Z,101246.13
2023-01-03T08:24:55.580Z,101245.31
2023-01-03T08:26:06.089Z,101243.59
2023-01-03T08:27:07.889Z,101245.91
2023-01-03T08:28:11.670Z,101251.38
2023-01-03T08:29:13.501Z,101249.44
2023-01-03T08:30:15.278Z,101250.41
2023-01-03T08:31:21.399Z,101245.16
2023-01-03T08:32:23.343Z,101254.75
2023-01-03T08:33:27.403Z,101239.25
2023-01-03T08:34:34.224Z,101237.41
2023-01-03T08:35:38.872Z,101248.56
2023-01-03T08:36:45.552Z,101247.59
2023-01-03T08:37:49.054Z,101246.78
2023-01-03T08:39:02.553Z,101250.16
2023-01-03T08:40:05.681Z,101229.56
2023-01-03T08:41:10.690Z,101249.28
2023-01-03T08:42:15.764Z,101252.94
2023-01-03T08:43:18.148Z,101257.19
2023-01-03T08:44:19.940Z,101247.00
2023-01-03T08:45:22.013Z,101259.13
2023-01-03T08:46:23.984Z,101260.09
2023-01-03T08:47:26.380Z,101268.06
2023-01-03T08:48:28.371Z,101280.53
2023-01-03T08:49:30.740Z,101250.13
2023-01-03T08:50:34.123Z,101272.53
2023-01-03T08:51:35.920Z,101278.72
2023-01-03T08:52:37.949Z,101276.06
2023-01-03T08:53:40.705Z,101258.13
2023-01-03T08:54:44.048Z,101273.88
2023-01-03T08:55:45.921Z,101283.19
2023-01-03T08:56:47.962Z,101254.50
2023-01-03T08:57:49.741Z,101294.69
2023-01-03T08:58:52.376Z,101298.34
2023-01-03T08:59:54.171Z,101287.91
2023-01-03T09:00:55.975Z,101294.69
2023-01-03T09:01:59.460Z,101297.47
2023-01-03T09:03:01.634Z,101274.53
2023-01-03T09:04:05.468Z,101296.50
2023-01-03T09:05:08.360Z,101299.91
2023-01-03T09:06:10.127Z,101296.16
2023-01-03T09:07:12.375Z,101297.00
2023-01-03T09:08:14.198Z,101296.16
2023-01-03T09:09:16.130Z,101295.19
2023-01-03T09:10:17.897Z,101298.69
2023-01-03T09:11:19.778Z,101306.59
2023-01-03T09:12:21.671Z,101307.44
2023-01-03T09:13:23.553Z,101308.28
2023-01-03T09:14:25.362Z,101290.34
2023-01-03T09:15:27.268Z,101306.34
2023-01-03T09:16:29.117Z,101299.66
2023-01-03T09:17:30.953Z,101302.13
2023-01-03T09:18:34.033Z,101309.75
2023-01-03T09:19:35.854Z,101310.47
2023-01-03T09:20:37.672Z,101313.16
2023-01-03T09:21:39.505Z,101316.69
2023-01-03T09:22:41.609Z,101314.84
2023-01-03T09:23:43.428Z,101324.53
2023-01-03T09:24:45.244Z,101312.31
2023-01-03T09:25:47.364Z,101312.91
2023-01-03T09:26:54.155Z,101306.63
2023-01-03T09:27:57.145Z,101308.78
2023-01-03T09:28:59.084Z,101315.34
2023-01-03T09:30:01.127Z,101310.47
2023-01-03T09:31:02.989Z,101323.34
2023-01-03T09:32:05.139Z,101326.00
2023-01-03T09:33:07.213Z,101331.22
2023-01-03T09:34:09.051Z,101324.19
2023-01-03T09:35:10.931Z,101337.38
2023-01-03T09:36:12.951Z,101333.88
2023-01-03T09:37:15.441Z,101318.47
2023-01-03T09:38:17.281Z,101334.63
2023-01-03T09:39:19.096Z,101326.72
2023-01-03T09:40:20.901Z,101325.25
2023-01-03T09:41:25.222Z,101333.75
2023-01-03T09:42:47.396Z,101335.47
2023-01-03T09:43:55.700Z,101324.50
2023-01-03T09:44:58.901Z,101310.75
2023-01-03T09:46:02.132Z,101328.13
2023-01-03T09:47:04.922Z,101335.25
2023-01-03T09:48:07.800Z,101340.59
2023-01-03T09:49:13.662Z,101338.88
2023-01-03T09:50:57.062Z,101340.59
2023-01-03T09:52:04.924Z,101336.63
2023-01-03T09:53:25.545Z,101333.84
2023-01-03T09:54:50.429Z,101342.69
2023-01-03T09:56:18.822Z,101338.22
2023-01-03T09:57:47.928Z,101333.63
2023-01-03T09:59:19.489Z,101345.97
2023-01-03T10:00:46.501Z,101352.25
2023-01-03T10:02:22.294Z,101350.56
2023-01-03T10:03:51.088Z,101344.38
2023-01-03T10:05:08.527Z,101335.56
2023-01-03T10:06:17.747Z,101346.31
2023-01-03T10:07:38.318Z,101348.38
2023-01-03T10:08:52.269Z,101351.03
2023-01-03T10:10:21.588Z,101343.88
2023-01-03T10:11:52.969Z,101351.78
2023-01-03T10:13:16.199Z,101351.63
2023-01-03T10:14:29.867Z,101350.81
2023-01-03T10:15:43.645Z,101363.41
2023-01-03T10:17:08.074Z,101357.34
2023-01-03T10:18:17.022Z,101356.38
2023-01-03T10:19:43.208Z,101360.72
2023-01-03T10:20:49.395Z,101360.00
2023-01-03T10:22:13.038Z,101363.63
2023-01-03T10:23:15.590Z,101363.50
2023-01-03T10:24:25.083Z,101360.28
2023-01-03T10:25:28.747Z,101367.44
2023-01-03T10:26:33.485Z,101352.13
2023-01-03T10:27:42.330Z,101365.84
2023-01-03T10:28:46.102Z,101364.38
2023-01-03T10:29:54.748Z,101374.81
2023-01-03T10:31:08.577Z,101370.31
2023-01-03T10:32:42.682Z,101384.06
2023-01-03T10:33:49.212Z,101388.44
2023-01-03T10:35:19.388Z,101380.34
2023-01-03T10:36:21.870Z,101379.63
2023-01-03T10:37:24.252Z,101369.09
2023-01-03T10:38:26.550Z,101370.06
2023-01-03T10:39:31.627Z,101386.44
2023-01-03T10:40:39.142Z,101386.44
2023-01-03T10:41:49.041Z,101374.31
2023-01-03T10:42:55.488Z,101384.50
2023-01-03T10:44:04.128Z,101389.84
2023-01-03T10:45:10.682Z,101386.31
2023-01-03T10:46:25.506Z,101393.34
2023-01-03T10:47:27.447Z,101379.41
2023-01-03T10:49:00.203Z,101391.53
2023-01-03T10:50:03.631Z,101399.19
2023-01-03T10:51:26.456Z,101391.97
2023-01-03T10:52:34.612Z,101404.53
2023-01-03T10:53:42.410Z,101396.72
2023-01-03T10:54:44.149Z,101406.44
2023-01-03T10:55:49.795Z,101400.59
2023-01-03T10:56:52.052Z,101405.81
2023-01-03T10:57:56.467Z,101399.63
2023-01-03T10:59:21.421Z,101405.59
2023-01-03T11:00:26.451Z,101415.19
2023-01-03T11:01:28.528Z,101411.78
2023-01-03T11:02:30.539Z,101416.47
2023-01-03T11:03:32.580Z,101418.28
2023-01-03T11:04:35.898Z,101411.25
2023-01-03T11:05:39.558Z,101417.44
2023-01-03T11:07:00.979Z,101419.78
2023-01-03T11:08:06.092Z,101419.00
2023-01-03T11:09:12.329Z,101408.81
2023-01-03T11:10:18.927Z,101410.19
2023-01-03T11:11:41.376Z,101413.47
2023-01-03T11:12:43.282Z,101413.47
2023-01-03T11:13:45.090Z,101409.22
2023-01-03T11:14:57.922Z,101417.31
2023-01-03T11:16:02.570Z,101411.88
2023-01-03T11:17:06.610Z,101419.00
2023-01-03T11:18:22.710Z,101417.31
2023-01-03T11:19:30.457Z,101421.91
2023-01-03T11:20:41.474Z,101427.75
2023-01-03T11:21:52.133Z,101427.75
2023-01-03T11:23:02.457Z,101427.75
2023-01-03T11:24:27.439Z,101435.56
2023-01-03T11:25:43.591Z,101431.94
2023-01-03T11:27:20.909Z,101426.69
2023-01-03T11:29:05.856Z,101429.41
2023-01-03T11:30:20.697Z,101419.94
2023-01-03T11:31:45.462Z,101410.81
2023-01-03T11:33:12.229Z,101435.84
2023-01-03T11:34:24.725Z,101435.09
2023-01-03T11:36:03.906Z,101434.25
2023-01-03T11:37:32.174Z,101429.78
2023-01-03T11:38:46.242Z,101426.25
2023-01-03T11:40:21.814Z,101420.09
2023-01-03T11:41:42.258Z,101422.97
2023-01-03T11:43:05.157Z,101423.56
2023-01-03T11:44:57.613Z,101420.59
2023-01-03T11:46:27.816Z,101432.81
2023-01-03T11:48:00.145Z,101438.13
2023-01-03T11:49:10.983Z,101432.22
2023-01-03T11:50:28.518Z,101443.94
2023-01-03T11:51:47.168Z,101446.72
2023-01-03T11:52:57.721Z,101441.72
2023-01-03T11:54:03.120Z,101448.66
2023-01-03T11:55:42.256Z,101455.69
2023-01-03T11:56:45.278Z,101425.03
2023-01-03T11:58:11.313Z,101453.75
2023-01-03T11:59:43.373Z,101447.06
2023-01-03T12:01:09.354Z,101449.91
2023-01-03T12:02:23.237Z,101432.22
2023-01-03T12:03:52.209Z,101456.19
2023-01-03T12:05:22.623Z,101451.59
2023-01-03T12:06:40.021Z,101446.25
2023-01-03T12:08:00.661Z,101443.09
2023-01-03T12:09:17.739Z,101440.94
2023-01-03T12:10:37.288Z,101441.78
2023-01-03T12:12:03.245Z,101451.81
2023-01-03T12:13:14.181Z,101449.03
2023-01-03T12:14:27.825Z,101454.50
2023-01-03T12:15:45.890Z,101452.78
2023-01-03T12:16:55.640Z,101455.47
2023-01-03T12:18:09.021Z,101447.06
2023-01-03T12:19:31.826Z,101459.69
2023-01-03T12:20:39.229Z,101458.84
2023-01-03T12:21:48.025Z,101460.78
2023-01-03T12:23:12.825Z,101455.78
2023-01-03T12:24:39.339Z,101461.28
2023-01-03T12:25:46.765Z,101455.22
2023-01-03T12:26:55.109Z,101458.94
2023-01-03T12:28:04.885Z,101450.69
2023-01-03T12:29:14.726Z,101441.81
2023-01-03T12:30:19.326Z,101452.88
2023-01-03T12:31:32.518Z,101449.25
2023-01-03T12:32:49.857Z,101453.53
2023-01-03T12:34:32.797Z,101451.47
2023-01-03T12:35:56.657Z,101458.25
2023-01-03T12:37:13.930Z,101454.75
2023-01-03T12:38:18.554Z,101455.09
2023-01-03T12:39:44.978Z,101460.31
2023-01-03T12:40:54.370Z,101458.63
2023-01-03T12:42:22.130Z,101458.50
2023-01-03T12:43:36.164Z,101444.56
2023-01-03T12:44:42.151Z,101452.44
2023-01-03T12:45:52.720Z,101454.25
2023-01-03T12:46:56.643Z,101453.53
2023-01-03T12:48:20.461Z,101455.47
2023-01-03T12:49:59.787Z,101455.81
2023-01-03T12:51:01.718Z,101465.44
2023-01-03T12:52:03.592Z,101468.41
2023-01-03T12:53:47.398Z,101461.38
2023-01-03T12:55:17.713Z,101470.63
2023-01-03T12:56:53.366Z,101469.66
2023-01-03T12:58:25.353Z,101461.78
2023-01-03T12:59:59.334Z,101458.41
2023-01-03T13:01:08.964Z,101461.78